sensor_id;sensor_type;location;lat;lon;timestamp;pressure;altitude;pressure_sealevel;temperature;humidity
41688;BME280;27371;42.686;23.362;2023-05-10T00:02:26;164415.69;;;8.51;100.00
41688;BME280;27371;42.686;23.362;2023-05-10T00:04:52;164431.69;;;8.57;100.00
41688;BME280;27371;42.686;23.362;2023-05-10T00:07:17;164441.06;;;8.61;100.00
41688;BME280;27371;42.686;23.362;2023-05-10T00:09:43;164435.72;;;8.59;100.00
41688;BME280;27371;42.686;23.362;2023-05-10T00:12:09;164431.69;;;8.57;100.00
41688;BME280;27371;42.686;23.362;2023-05-10T00:14:34;164415.69;;;8.51;100.00
41688;BME280;27371;42.686;23.362;2023-05-10T00:17:00;164415.69;;;8.51;100.00
41688;BME280;27371;42.686;23.362;2023-05-10T00:19:25;164391.69;;;8.42;100.00
41688;BME280;27371;42.686;23.362;2023-05-10T00:21:51;164411.72;;;8.50;100.00
41688;BME280;27371;42.686;23.362;2023-05-10T00:24:17;164397.03;;;8.44;100.00
41688;BME280;27371;42.686;23.362;2023-05-10T00:26:42;164411.72;;;8.50;100.00
41688;BME280;27371;42.686;23.362;2023-05-10T00:29:07;164398.34;;;8.44;100.00
41688;BME280;27371;42.686;23.362;2023-05-10T00:31:33;164390.34;;;8.41;100.00
41688;BME280;27371;42.686;23.362;2023-05-10T00:33:59;164350.25;;;8.26;100.00
41688;BME280;27371;42.686;23.362;2023-05-10T00:36:24;164363.59;;;8.31;100.00
41688;BME280;27371;42.686;23.362;2023-05-10T00:38:49;164328.88;;;8.18;100.00
41688;BME280;27371;42.686;23.362;2023-05-10T00:41:15;164370.28;;;8.34;100.00
41688;BME280;27371;42.686;23.362;2023-05-10T00:43:41;164379.59;;;8.37;100.00
41688;BME280;27371;42.686;23.362;2023-05-10T00:46:07;164307.53;;;8.10;100.00
41688;BME280;27371;42.686;23.362;2023-05-10T00:48:33;164360.94;;;8.30;100.00
41688;BME280;27371;42.686;23.362;2023-05-10T00:50:59;164362.28;;;8.31;100.00
41688;BME280;27371;42.686;23.362;2023-05-10T00:53:26;164366.25;;;8.32;100.00
41688;BME280;27371;42.686;23.362;2023-05-10T00:55:52;164375.63;;;8.36;100.00
41688;BME280;27371;42.686;23.362;2023-05-10T00:58:17;164356.91;;;8.29;100.00
41688;BME280;27371;42.686;23.362;2023-05-10T01:00:45;164367.63;;;8.33;100.00
41688;BME280;27371;42.686;23.362;2023-05-10T01:03:11;164338.22;;;8.21;100.00
41688;BME280;27371;42.686;23.362;2023-05-10T01:05:37;164358.25;;;8.29;100.00
41688;BME280;27371;42.686;23.362;2023-05-10T01:08:03;164358.25;;;8.29;100.00
41688;BME280;27371;42.686;23.362;2023-05-10T01:10:29;164358.25;;;8.29;100.00
41688;BME280;27371;42.686;23.362;2023-05-10T01:12:55;164340.91;;;8.22;100.00
41688;BME280;27371;42.686;23.362;2023-05-10T01:15:21;164339.59;;;8.22;100.00
41688;BME280;27371;42.686;23.362;2023-05-10T01:17:48;164339.59;;;8.22;100.00
41688;BME280;27371;42.686;23.362;2023-05-10T01:20:14;164342.25;;;8.23;100.00
41688;BME280;27371;42.686;23.362;2023-05-10T01:31:49;164331.59;;;8.19;98.44
41688;BME280;27371;42.686;23.362;2023-05-10T01:34:20;164303.56;;;8.08;98.43
41688;BME280;27371;42.686;23.362;2023-05-10T01:36:58;164314.22;;;8.12;98.19
41688;BME280;27371;42.686;23.362;2023-05-10T01:42:17;164298.22;;;8.06;98.28
41688;BME280;27371;42.686;23.362;2023-05-10T01:44:54;164306.22;;;8.09;98.60
41688;BME280;27371;42.686;23.362;2023-05-10T01:47:32;164287.50;;;8.02;97.98
41688;BME280;27371;42.686;23.362;2023-05-10T01:50:02;164303.56;;;8.08;97.76
41688;BME280;27371;42.686;23.362;2023-05-10T01:52:38;164307.53;;;8.10;97.29
41688;BME280;27371;42.686;23.362;2023-05-10T01:55:08;164302.19;;;8.08;97.35
41688;BME280;27371;42.686;23.362;2023-05-10T01:57:36;164296.91;;;8.06;96.72
41688;BME280;27371;42.686;23.362;2023-05-10T02:00:03;164290.22;;;8.03;97.06
41688;BME280;27371;42.686;23.362;2023-05-10T02:02:33;164288.91;;;8.02;96.90
41688;BME280;27371;42.686;23.362;2023-05-10T02:05:02;164283.53;;;8.00;96.84
41688;BME280;27371;42.686;23.362;2023-05-10T02:07:29;164282.22;;;8.00;96.74
41688;BME280;27371;42.686;23.362;2023-05-10T02:09:56;164282.22;;;8.00;96.41
41688;BME280;27371;42.686;23.362;2023-05-10T02:12:22;164276.88;;;7.98;96.45
41688;BME280;27371;42.686;23.362;2023-05-10T02:14:49;164279.53;;;7.99;96.76
41688;BME280;27371;42.686;23.362;2023-05-10T02:17:16;164220.81;;;7.76;96.98
41688;BME280;27371;42.686;23.362;2023-05-10T02:19:43;164198.16;;;7.68;96.79
41688;BME280;27371;42.686;23.362;2023-05-10T02:22:09;164242.16;;;7.85;96.95
41688;BME280;27371;42.686;23.362;2023-05-10T02:24:36;164243.50;;;7.85;97.37
41688;BME280;27371;42.686;23.362;2023-05-10T02:27:03;164243.50;;;7.85;97.87
41688;BME280;27371;42.686;23.362;2023-05-10T02:29:31;164228.81;;;7.79;96.96
41688;BME280;27371;42.686;23.362;2023-05-10T02:31:58;164242.16;;;7.85;97.00
41688;BME280;27371;42.686;23.362;2023-05-10T02:34:28;164227.50;;;7.79;95.76
41688;BME280;27371;42.686;23.362;2023-05-10T02:36:55;164150.13;;;7.49;95.00
41688;BME280;27371;42.686;23.362;2023-05-10T02:39:22;164203.50;;;7.70;94.66
41688;BME280;27371;42.686;23.362;2023-05-10T02:41:50;164190.16;;;7.65;93.11
41688;BME280;27371;42.686;23.362;2023-05-10T02:44:18;164150.13;;;7.49;90.29
41688;BME280;27371;42.686;23.362;2023-05-10T02:46:43;164122.09;;;7.39;89.67
41688;BME280;27371;42.686;23.362;2023-05-10T02:49:09;164110.13;;;7.34;88.35
41688;BME280;27371;42.686;23.362;2023-05-10T02:51:37;164106.13;;;7.32;87.44
41688;BME280;27371;42.686;23.362;2023-05-10T02:54:28;164091.44;;;7.27;87.65
41688;BME280;27371;42.686;23.362;2023-05-10T02:56:57;164078.09;;;7.22;88.00
41688;BME280;27371;42.686;23.362;2023-05-10T02:59:25;164084.78;;;7.24;88.04
41688;BME280;27371;42.686;23.362;2023-05-10T03:01:53;164076.78;;;7.21;88.43
41688;BME280;27371;42.686;23.362;2023-05-10T03:04:19;164064.75;;;7.17;88.81
41688;BME280;27371;42.686;23.362;2023-05-10T03:06:45;164056.78;;;7.13;88.39
41688;BME280;27371;42.686;23.362;2023-05-10T03:09:11;164051.47;;;7.11;88.09
41688;BME280;27371;42.686;23.362;2023-05-10T03:19:51;163956.75;;;6.75;88.70
41688;BME280;27371;42.686;23.362;2023-05-10T03:22:25;164036.81;;;7.06;88.17
41688;BME280;27371;42.686;23.362;2023-05-10T03:24:54;164040.78;;;7.07;87.52
41688;BME280;27371;42.686;23.362;2023-05-10T03:27:22;164010.13;;;6.96;86.93
41688;BME280;27371;42.686;23.362;2023-05-10T03:29:50;164020.78;;;7.00;86.85
41688;BME280;27371;42.686;23.362;2023-05-10T03:32:16;163918.13;;;6.60;86.53
41688;BME280;27371;42.686;23.362;2023-05-10T03:34:42;164006.09;;;6.94;85.98
41688;BME280;27371;42.686;23.362;2023-05-10T03:37:08;164020.78;;;7.00;85.90
41688;BME280;27371;42.686;23.362;2023-05-10T03:39:34;164014.09;;;6.97;86.26
41688;BME280;27371;42.686;23.362;2023-05-10T03:41:59;164011.44;;;6.96;86.59
41688;BME280;27371;42.686;23.362;2023-05-10T03:44:25;164020.78;;;7.00;86.35
41688;BME280;27371;42.686;23.362;2023-05-10T03:46:51;164006.09;;;6.94;86.13
41688;BME280;27371;42.686;23.362;2023-05-10T03:49:16;164006.09;;;6.94;85.42
41688;BME280;27371;42.686;23.362;2023-05-10T03:51:41;163990.13;;;6.88;86.04
41688;BME280;27371;42.686;23.362;2023-05-10T03:54:07;164004.78;;;6.94;85.72
41688;BME280;27371;42.686;23.362;2023-05-10T03:56:33;163995.47;;;6.90;86.04
41688;BME280;27371;42.686;23.362;2023-05-10T03:58:59;163995.47;;;6.90;85.95
41688;BME280;27371;42.686;23.362;2023-05-10T04:01:25;163998.09;;;6.91;85.71
41688;BME280;27371;42.686;23.362;2023-05-10T04:03:50;163988.78;;;6.87;86.31
41688;BME280;27371;42.686;23.362;2023-05-10T04:06:16;163998.09;;;6.91;86.38
41688;BME280;27371;42.686;23.362;2023-05-10T04:08:41;163996.78;;;6.90;86.71
41688;BME280;27371;42.686;23.362;2023-05-10T04:11:08;163971.44;;;6.81;86.26
41688;BME280;27371;42.686;23.362;2023-05-10T04:13:34;163998.09;;;6.91;86.38
41688;BME280;27371;42.686;23.362;2023-05-10T04:16:00;163979.47;;;6.84;86.80
41688;BME280;27371;42.686;23.362;2023-05-10T04:18:25;163992.75;;;6.89;87.04
41688;BME280;27371;42.686;23.362;2023-05-10T04:20:51;163984.78;;;6.86;86.85
41688;BME280;27371;42.686;23.362;2023-05-10T04:23:16;163979.47;;;6.84;86.49
41688;BME280;27371;42.686;23.362;2023-05-10T04:25:42;163951.47;;;6.73;86.78
41688;BME280;27371;42.686;23.362;2023-05-10T04:28:08;163975.44;;;6.82;87.47
41688;BME280;27371;42.686;23.362;2023-05-10T04:30:34;163976.78;;;6.83;87.80
41688;BME280;27371;42.686;23.362;2023-05-10T04:33:00;163990.13;;;6.88;87.54
41688;BME280;27371;42.686;23.362;2023-05-10T04:35:26;163998.09;;;6.91;86.91
41688;BME280;27371;42.686;23.362;2023-05-10T04:37:52;163998.09;;;6.91;87.00
41688;BME280;27371;42.686;23.362;2023-05-10T04:40:17;163996.78;;;6.90;86.42
41688;BME280;27371;42.686;23.362;2023-05-10T04:42:43;163996.78;;;6.90;86.29
41688;BME280;27371;42.686;23.362;2023-05-10T04:45:09;163988.78;;;6.87;86.66
41688;BME280;27371;42.686;23.362;2023-05-10T04:47:35;163979.47;;;6.84;86.70
41688;BME280;27371;42.686;23.362;2023-05-10T04:50:02;163958.13;;;6.76;86.42
41688;BME280;27371;42.686;23.362;2023-05-10T04:52:31;163931.47;;;6.65;85.83
41688;BME280;27371;42.686;23.362;2023-05-10T04:54:57;163898.13;;;6.53;86.49
41688;BME280;27371;42.686;23.362;2023-05-10T04:57:22;163891.44;;;6.50;87.10
41688;BME280;27371;42.686;23.362;2023-05-10T04:59:48;163890.13;;;6.50;88.41
41688;BME280;27371;42.686;23.362;2023-05-10T05:02:13;163934.13;;;6.66;88.99
41688;BME280;27371;42.686;23.362;2023-05-10T05:04:39;163979.47;;;6.84;88.75
41688;BME280;27371;42.686;23.362;2023-05-10T05:07:04;163995.47;;;6.90;87.52
41688;BME280;27371;42.686;23.362;2023-05-10T05:09:30;164008.81;;;6.95;87.02
41688;BME280;27371;42.686;23.362;2023-05-10T05:11:57;164012.78;;;6.97;86.99
41688;BME280;27371;42.686;23.362;2023-05-10T05:14:23;164006.09;;;6.94;87.43
41688;BME280;27371;42.686;23.362;2023-05-10T05:16:50;164036.81;;;7.06;86.77
41688;BME280;27371;42.686;23.362;2023-05-10T05:19:16;164052.78;;;7.12;86.90
41688;BME280;27371;42.686;23.362;2023-05-10T05:21:42;164063.44;;;7.16;86.55
41688;BME280;27371;42.686;23.362;2023-05-10T05:24:07;164064.75;;;7.17;86.50
41688;BME280;27371;42.686;23.362;2023-05-10T05:26:33;164076.78;;;7.21;86.37
41688;BME280;27371;42.686;23.362;2023-05-10T05:28:58;164050.09;;;7.11;86.29
41688;BME280;27371;42.686;23.362;2023-05-10T05:31:24;164056.78;;;7.13;85.62
41688;BME280;27371;42.686;23.362;2023-05-10T05:33:49;164030.13;;;7.03;86.07
41688;BME280;27371;42.686;23.362;2023-05-10T05:36:15;164014.09;;;6.97;86.74
41688;BME280;27371;42.686;23.362;2023-05-10T05:38:40;163995.47;;;6.90;86.74
41688;BME280;27371;42.686;23.362;2023-05-10T05:41:06;164020.78;;;7.00;88.61
41688;BME280;27371;42.686;23.362;2023-05-10T05:43:31;164035.44;;;7.05;88.46
41688;BME280;27371;42.686;23.362;2023-05-10T05:45:57;164046.13;;;7.09;88.51
41688;BME280;27371;42.686;23.362;2023-05-10T05:48:23;164068.78;;;7.18;88.00
41688;BME280;27371;42.686;23.362;2023-05-10T05:50:49;164048.78;;;7.10;87.81
41688;BME280;27371;42.686;23.362;2023-05-10T05:53:14;164062.13;;;7.16;87.67
41688;BME280;27371;42.686;23.362;2023-05-10T05:55:50;164090.13;;;7.26;87.46
41688;BME280;27371;42.686;23.362;2023-05-10T05:58:15;164078.09;;;7.22;87.70
41688;BME280;27371;42.686;23.362;2023-05-10T06:00:41;164060.78;;;7.15;88.24
41688;BME280;27371;42.686;23.362;2023-05-10T06:03:06;164107.44;;;7.33;87.93
41688;BME280;27371;42.686;23.362;2023-05-10T06:05:32;164084.78;;;7.24;87.75
41688;BME280;27371;42.686;23.362;2023-05-10T06:07:59;164100.75;;;7.30;87.72
41688;BME280;27371;42.686;23.362;2023-05-10T06:10:25;164110.13;;;7.34;87.24
41688;BME280;27371;42.686;23.362;2023-05-10T06:12:50;164102.16;;;7.31;87.66
41688;BME280;27371;42.686;23.362;2023-05-10T06:15:16;164112.78;;;7.35;87.39
41688;BME280;27371;42.686;23.362;2023-05-10T06:17:41;164111.47;;;7.34;87.03
41688;BME280;27371;42.686;23.362;2023-05-10T06:20:08;164120.78;;;7.38;86.64
41688;BME280;27371;42.686;23.362;2023-05-10T06:22:34;164108.81;;;7.33;86.35
41688;BME280;27371;42.686;23.362;2023-05-10T06:24:59;164118.13;;;7.37;86.57
41688;BME280;27371;42.686;23.362;2023-05-10T06:27:25;164127.44;;;7.41;86.71
41688;BME280;27371;42.686;23.362;2023-05-10T06:29:51;164134.13;;;7.43;86.07
41688;BME280;27371;42.686;23.362;2023-05-10T06:32:16;164127.44;;;7.41;86.02
41688;BME280;27371;42.686;23.362;2023-05-10T06:34:42;164150.13;;;7.49;85.63
41688;BME280;27371;42.686;23.362;2023-05-10T06:37:08;164144.81;;;7.47;84.91
41688;BME280;27371;42.686;23.362;2023-05-10T06:39:34;164150.13;;;7.49;85.93
41688;BME280;27371;42.686;23.362;2023-05-10T06:42:00;164172.78;;;7.58;86.08
41688;BME280;27371;42.686;23.362;2023-05-10T06:44:27;164186.13;;;7.63;85.61
41688;BME280;27371;42.686;23.362;2023-05-10T06:46:53;164176.81;;;7.59;84.42
41688;BME280;27371;42.686;23.362;2023-05-10T06:49:20;164191.47;;;7.65;83.94
41688;BME280;27371;42.686;23.362;2023-05-10T06:51:46;164196.84;;;7.67;83.81
41688;BME280;27371;42.686;23.362;2023-05-10T06:54:12;164206.16;;;7.71;83.20
41688;BME280;27371;42.686;23.362;2023-05-10T06:56:37;164203.50;;;7.70;82.95
41688;BME280;27371;42.686;23.362;2023-05-10T06:59:04;164207.47;;;7.71;82.92
41688;BME280;27371;42.686;23.362;2023-05-10T07:01:30;164234.16;;;7.81;82.75
41688;BME280;27371;42.686;23.362;2023-05-10T07:03:55;164251.50;;;7.88;81.91
41688;BME280;27371;42.686;23.362;2023-05-10T07:06:21;164243.50;;;7.85;81.58
41688;BME280;27371;42.686;23.362;2023-05-10T07:08:46;164243.50;;;7.85;81.63
41688;BME280;27371;42.686;23.362;2023-05-10T07:11:12;164267.53;;;7.94;81.10
41688;BME280;27371;42.686;23.362;2023-05-10T07:13:37;164254.19;;;7.89;81.03
41688;BME280;27371;42.686;23.362;2023-05-10T07:16:06;164284.88;;;8.01;80.63
41688;BME280;27371;42.686;23.362;2023-05-10T07:18:33;164282.22;;;8.00;79.71
41688;BME280;27371;42.686;23.362;2023-05-10T07:20:58;164284.88;;;8.01;79.42
41688;BME280;27371;42.686;23.362;2023-05-10T07:23:24;164299.53;;;8.07;79.17
41688;BME280;27371;42.686;23.362;2023-05-10T07:25:51;164314.22;;;8.12;78.95
41688;BME280;27371;42.686;23.362;2023-05-10T07:28:19;164323.53;;;8.16;79.42
41688;BME280;27371;42.686;23.362;2023-05-10T07:30:45;164324.91;;;8.16;79.70
41688;BME280;27371;42.686;23.362;2023-05-10T07:33:12;164354.28;;;8.28;79.04
41688;BME280;27371;42.686;23.362;2023-05-10T07:35:38;164374.25;;;8.35;79.43
41688;BME280;27371;42.686;23.362;2023-05-10T07:38:04;164401.00;;;8.45;77.87
41688;BME280;27371;42.686;23.362;2023-05-10T07:40:29;164389.03;;;8.41;77.60
41688;BME280;27371;42.686;23.362;2023-05-10T07:42:55;164401.00;;;8.45;77.92
41688;BME280;27371;42.686;23.362;2023-05-10T07:45:21;164387.66;;;8.40;77.76
41688;BME280;27371;42.686;23.362;2023-05-10T07:47:47;164390.34;;;8.41;77.01
41688;BME280;27371;42.686;23.362;2023-05-10T07:50:13;164414.34;;;8.51;76.57
41688;BME280;27371;42.686;23.362;2023-05-10T07:52:38;164358.25;;;8.29;75.87
41688;BME280;27371;42.686;23.362;2023-05-10T07:55:04;164393.00;;;8.42;76.44
41688;BME280;27371;42.686;23.362;2023-05-10T07:57:30;164386.31;;;8.40;76.54
41688;BME280;27371;42.686;23.362;2023-05-10T07:59:56;164411.72;;;8.50;76.97
41688;BME280;27371;42.686;23.362;2023-05-10T08:02:21;164421.03;;;8.53;76.48
41688;BME280;27371;42.686;23.362;2023-05-10T08:04:47;164379.59;;;8.37;76.30
41688;BME280;27371;42.686;23.362;2023-05-10T08:07:12;164442.38;;;8.61;75.94
41688;BME280;27371;42.686;23.362;2023-05-10T08:09:38;164457.06;;;8.67;74.98
41688;BME280;27371;42.686;23.362;2023-05-10T08:12:03;164437.03;;;8.59;75.05
41688;BME280;27371;42.686;23.362;2023-05-10T08:14:29;164453.03;;;8.65;75.58
41688;BME280;27371;42.686;23.362;2023-05-10T08:16:55;164454.41;;;8.66;74.99
41688;BME280;27371;42.686;23.362;2023-05-10T08:19:20;164450.41;;;8.64;75.32
41688;BME280;27371;42.686;23.362;2023-05-10T08:21:47;164453.03;;;8.65;75.33
41688;BME280;27371;42.686;23.362;2023-05-10T08:24:12;164463.75;;;8.69;75.95
41688;BME280;27371;42.686;23.362;2023-05-10T08:26:38;164470.44;;;8.72;75.92
41688;BME280;27371;42.686;23.362;2023-05-10T08:29:04;164458.41;;;8.67;76.30
41688;BME280;27371;42.686;23.362;2023-05-10T08:31:29;164462.41;;;8.69;75.41
41688;BME280;27371;42.686;23.362;2023-05-10T08:33:55;164510.44;;;8.87;75.73
41688;BME280;27371;42.686;23.362;2023-05-10T08:36:21;164499.78;;;8.83;75.87
41688;BME280;27371;42.686;23.362;2023-05-10T08:38:53;164509.13;;;8.87;76.22
41688;BME280;27371;42.686;23.362;2023-05-10T08:41:23;164494.44;;;8.81;76.75
41688;BME280;27371;42.686;23.362;2023-05-10T08:43:53;164505.16;;;8.85;77.64
41688;BME280;27371;42.686;23.362;2023-05-10T08:46:21;164533.19;;;8.96;78.34
41688;BME280;27371;42.686;23.362;2023-05-10T08:48:48;164550.50;;;9.03;78.67
41688;BME280;27371;42.686;23.362;2023-05-10T08:51:18;164541.19;;;8.99;76.93
41688;BME280;27371;42.686;23.362;2023-05-10T08:53:45;164505.16;;;8.85;77.30
41688;BME280;27371;42.686;23.362;2023-05-10T08:56:11;164486.44;;;8.78;77.41
41688;BME280;27371;42.686;23.362;2023-05-10T08:58:37;164466.41;;;8.70;77.66
41688;BME280;27371;42.686;23.362;2023-05-10T09:01:03;164474.41;;;8.74;78.07
41688;BME280;27371;42.686;23.362;2023-05-10T09:03:30;164471.75;;;8.73;78.06
41688;BME280;27371;42.686;23.362;2023-05-10T09:05:56;164445.03;;;8.62;78.45
41688;BME280;27371;42.686;23.362;2023-05-10T09:08:23;164466.41;;;8.70;79.41
41688;BME280;27371;42.686;23.362;2023-05-10T09:10:51;164478.44;;;8.75;79.82
41688;BME280;27371;42.686;23.362;2023-05-10T09:13:17;164482.47;;;8.77;80.15
41688;BME280;27371;42.686;23.362;2023-05-10T09:15:44;164514.47;;;8.89;79.21
41688;BME280;27371;42.686;23.362;2023-05-10T09:18:10;164534.50;;;8.97;78.74
41688;BME280;27371;42.686;23.362;2023-05-10T09:20:36;164499.78;;;8.83;78.40
41688;BME280;27371;42.686;23.362;2023-05-10T09:23:01;164545.16;;;9.01;78.09
41688;BME280;27371;42.686;23.362;2023-05-10T09:25:27;164550.50;;;9.03;78.24
41688;BME280;27371;42.686;23.362;2023-05-10T09:27:52;164557.19;;;9.05;79.09
41688;BME280;27371;42.686;23.362;2023-05-10T09:32:49;164575.91;;;9.12;78.92
41688;BME280;27371;42.686;23.362;2023-05-10T09:35:17;164567.84;;;9.09;77.10
41688;BME280;27371;42.686;23.362;2023-05-10T09:37:44;164550.50;;;9.03;77.63
41688;BME280;27371;42.686;23.362;2023-05-10T09:40:16;164579.88;;;9.14;76.73
41688;BME280;27371;42.686;23.362;2023-05-10T09:43:00;164590.59;;;9.18;76.05
41688;BME280;27371;42.686;23.362;2023-05-10T09:45:28;164553.16;;;9.04;75.62
41688;BME280;27371;42.686;23.362;2023-05-10T09:47:54;164609.25;;;9.25;75.26
41688;BME280;27371;42.686;23.362;2023-05-10T09:50:21;164625.28;;;9.31;75.42
41688;BME280;27371;42.686;23.362;2023-05-10T09:55:13;164625.28;;;9.31;74.66
41688;BME280;27371;42.686;23.362;2023-05-10T09:57:39;164618.59;;;9.29;74.29
41688;BME280;27371;42.686;23.362;2023-05-10T10:00:06;164642.66;;;9.38;73.69
41688;BME280;27371;42.686;23.362;2023-05-10T10:02:32;164657.34;;;9.44;73.86
41688;BME280;27371;42.686;23.362;2023-05-10T10:05:01;164672.03;;;9.49;73.29
41688;BME280;27371;42.686;23.362;2023-05-10T10:07:28;164673.34;;;9.50;72.95
41688;BME280;27371;42.686;23.362;2023-05-10T10:09:54;164685.41;;;9.54;73.00
41688;BME280;27371;42.686;23.362;2023-05-10T10:12:20;164686.72;;;9.55;73.91
41688;BME280;27371;42.686;23.362;2023-05-10T10:14:49;164738.78;;;9.75;72.79
41688;BME280;27371;42.686;23.362;2023-05-10T10:17:16;164744.16;;;9.77;72.56
41688;BME280;27371;42.686;23.362;2023-05-10T10:19:42;164790.88;;;9.95;72.26
41688;BME280;27371;42.686;23.362;2023-05-10T10:22:08;164806.94;;;10.01;71.67
41688;BME280;27371;42.686;23.362;2023-05-10T10:24:35;164814.97;;;10.04;71.43
41688;BME280;27371;42.686;23.362;2023-05-10T10:27:11;164829.66;;;10.10;70.79
41688;BME280;27371;42.686;23.362;2023-05-10T10:29:58;164817.59;;;10.05;70.36
41688;BME280;27371;42.686;23.362;2023-05-10T10:35:10;164881.78;;;10.30;70.40
41688;BME280;27371;42.686;23.362;2023-05-10T10:37:46;164881.78;;;10.30;70.91
41688;BME280;27371;42.686;23.362;2023-05-10T10:40:31;164897.81;;;10.36;69.84
41688;BME280;27371;42.686;23.362;2023-05-10T10:42:57;164899.13;;;10.36;69.81
41688;BME280;27371;42.686;23.362;2023-05-10T10:45:24;164864.41;;;10.23;69.35
41688;BME280;27371;42.686;23.362;2023-05-10T10:48:20;164864.41;;;10.23;69.26
41688;BME280;27371;42.686;23.362;2023-05-10T10:50:45;164860.34;;;10.21;69.96
41688;BME280;27371;42.686;23.362;2023-05-10T10:53:12;164868.38;;;10.24;70.33
41688;BME280;27371;42.686;23.362;2023-05-10T10:55:47;164872.41;;;10.26;70.38
41688;BME280;27371;42.686;23.362;2023-05-10T10:58:33;164868.38;;;10.24;70.44
41688;BME280;27371;42.686;23.362;2023-05-10T11:01:16;164887.16;;;10.32;70.51
41688;BME280;27371;42.686;23.362;2023-05-10T11:06:32;164838.97;;;10.13;70.27
41688;BME280;27371;42.686;23.362;2023-05-10T11:08:59;164868.38;;;10.24;70.67
41688;BME280;27371;42.686;23.362;2023-05-10T11:11:24;164884.44;;;10.31;70.77
41688;BME280;27371;42.686;23.362;2023-05-10T11:13:51;164877.75;;;10.28;70.55
41688;BME280;27371;42.686;23.362;2023-05-10T11:16:24;164909.84;;;10.40;70.84
41688;BME280;27371;42.686;23.362;2023-05-10T11:19:03;164911.19;;;10.41;70.59
41688;BME280;27371;42.686;23.362;2023-05-10T11:21:32;164893.84;;;10.34;71.17
41688;BME280;27371;42.686;23.362;2023-05-10T11:23:59;164949.91;;;10.56;71.04
41688;BME280;27371;42.686;23.362;2023-05-10T11:26:30;164976.66;;;10.66;71.00
41688;BME280;27371;42.686;23.362;2023-05-10T11:28:55;164991.34;;;10.72;70.21
41688;BME280;27371;42.686;23.362;2023-05-10T11:31:22;164940.56;;;10.52;70.25
41688;BME280;27371;42.686;23.362;2023-05-10T11:33:53;164948.59;;;10.55;71.20
41688;BME280;27371;42.686;23.362;2023-05-10T11:36:20;164984.66;;;10.69;70.73
41688;BME280;27371;42.686;23.362;2023-05-10T11:38:47;164999.38;;;10.75;70.32
41688;BME280;27371;42.686;23.362;2023-05-10T11:41:13;164943.28;;;10.53;70.13
41688;BME280;27371;42.686;23.362;2023-05-10T11:43:39;164986.00;;;10.69;70.90
41688;BME280;27371;42.686;23.362;2023-05-10T11:46:06;164971.28;;;10.64;69.66
41688;BME280;27371;42.686;23.362;2023-05-10T11:48:32;165003.41;;;10.76;69.17
41688;BME280;27371;42.686;23.362;2023-05-10T11:50:58;165015.44;;;10.81;69.29
41688;BME280;27371;42.686;23.362;2023-05-10T11:53:29;164983.34;;;10.68;69.50
41688;BME280;27371;42.686;23.362;2023-05-10T11:55:55;164982.00;;;10.68;70.53
41688;BME280;27371;42.686;23.362;2023-05-10T11:58:20;164999.38;;;10.75;70.54
41688;BME280;27371;42.686;23.362;2023-05-10T12:00:48;165016.78;;;10.81;70.18
41688;BME280;27371;42.686;23.362;2023-05-10T12:03:14;164999.38;;;10.75;69.63
41688;BME280;27371;42.686;23.362;2023-05-10T12:05:40;164990.03;;;10.71;70.27
41688;BME280;27371;42.686;23.362;2023-05-10T12:08:14;165010.09;;;10.79;70.50
41688;BME280;27371;42.686;23.362;2023-05-10T12:10:39;165028.75;;;10.86;70.57
41688;BME280;27371;42.686;23.362;2023-05-10T12:13:05;165016.78;;;10.81;70.58
41688;BME280;27371;42.686;23.362;2023-05-10T12:15:35;165024.78;;;10.84;70.38
41688;BME280;27371;42.686;23.362;2023-05-10T12:18:01;165015.44;;;10.81;69.71
41688;BME280;27371;42.686;23.362;2023-05-10T12:20:28;165014.06;;;10.80;70.86
41688;BME280;27371;42.686;23.362;2023-05-10T12:22:56;165024.78;;;10.84;70.25
41688;BME280;27371;42.686;23.362;2023-05-10T12:25:23;165024.78;;;10.84;70.19
41688;BME280;27371;42.686;23.362;2023-05-10T12:27:57;165022.09;;;10.83;70.57
41688;BME280;27371;42.686;23.362;2023-05-10T12:30:24;165027.44;;;10.85;70.07
41688;BME280;27371;42.686;23.362;2023-05-10T12:32:50;165011.41;;;10.79;70.15
41688;BME280;27371;42.686;23.362;2023-05-10T12:35:16;164990.03;;;10.71;70.49
41688;BME280;27371;42.686;23.362;2023-05-10T12:37:44;165014.06;;;10.80;69.83
41688;BME280;27371;42.686;23.362;2023-05-10T12:40:11;165019.44;;;10.82;70.67
41688;BME280;27371;42.686;23.362;2023-05-10T12:42:37;165018.09;;;10.82;70.00
41688;BME280;27371;42.686;23.362;2023-05-10T12:45:06;165016.78;;;10.81;70.70
41688;BME280;27371;42.686;23.362;2023-05-10T12:47:33;164987.38;;;10.70;70.03
41688;BME280;27371;42.686;23.362;2023-05-10T12:50:00;164988.69;;;10.70;70.10
41688;BME280;27371;42.686;23.362;2023-05-10T12:52:27;164995.38;;;10.73;69.95
41688;BME280;27371;42.686;23.362;2023-05-10T12:54:53;164987.38;;;10.70;69.92
41688;BME280;27371;42.686;23.362;2023-05-10T12:57:20;164988.69;;;10.70;70.21
41688;BME280;27371;42.686;23.362;2023-05-10T12:59:45;164969.97;;;10.63;69.98
41688;BME280;27371;42.686;23.362;2023-05-10T13:02:11;165023.47;;;10.84;70.06
41688;BME280;27371;42.686;23.362;2023-05-10T13:04:36;165031.47;;;10.87;70.05
41688;BME280;27371;42.686;23.362;2023-05-10T13:07:07;164996.72;;;10.74;69.87
41688;BME280;27371;42.686;23.362;2023-05-10T13:09:34;165018.09;;;10.82;69.82
41688;BME280;27371;42.686;23.362;2023-05-10T13:12:00;165028.75;;;10.86;69.67
41688;BME280;27371;42.686;23.362;2023-05-10T13:14:25;165007.38;;;10.78;69.70
41688;BME280;27371;42.686;23.362;2023-05-10T13:16:51;165002.06;;;10.76;70.47
41688;BME280;27371;42.686;23.362;2023-05-10T13:19:17;165019.44;;;10.82;70.02